Paim Filho, Brazil
Current Conditions -  °F | °C
As of 11:00 AM on Wednesday 26 Nov 2014 (Local Time) from SBPF Reporting Station
Broken Clouds Broken Clouds  
Wind Chill: 72°   Ceiling: 3000
Heat Index: 72°   Visibility: 6mi
Dew Point: 59°   Wind: 9mph
Humidity: 64%   Direction: 200°SSW
Pressure: 29.88"   Gusts: NA
Location:  27.72°S, 51.76°W
Report Text: SBPF 261300Z 20008KT 9999 BKN030 22/15 Q1012
Loading
Personal Weather Stations






























Interactive Weather Map New forecast layout! Learn more

10-Day Weather Forecast

Advertisements
Track Severe Weather on mobile